Lostant, Illinois
Current Conditions -  °F | °C
As of 3:15 AM on Sunday 26 Oct 2014 (Local Time) from KVYS Reporting Station
Clear Clear  
Wind Chill: 36°   Ceiling: Unl
Heat Index: 41°   Visibility: 10mi
Dew Point: 33°   Wind: 8mph
Humidity: 72%   Direction: 310°NW
Pressure: 30.03"   Gusts: NA
Location:  41.14°N, 89.06°W
Report Text: KVYS 260815Z AUTO 31007KT 10SM CLR 05/01 A3003 RMK AO2 T00510005
Loading
Personal Weather Stations






























Interactive Weather Map New forecast layout! Learn more

10-Day Weather Forecast

Advertisements
Track Severe Weather on mobile